sensor_id;sensor_type;location;lat;lon;timestamp;P1;durP1;ratioP1;P2;durP2;ratioP2
31132;SDS011;17779;50.942;4.026;2023-04-24T00:00:09;29.80;;;13.25;;
31132;SDS011;17779;50.942;4.026;2023-04-24T00:05:05;25.25;;;13.02;;
31132;SDS011;17779;50.942;4.026;2023-04-24T00:07:31;31.67;;;14.02;;
31132;SDS011;17779;50.942;4.026;2023-04-24T00:09:57;30.83;;;14.55;;
31132;SDS011;17779;50.942;4.026;2023-04-24T00:12:23;33.40;;;14.43;;
31132;SDS011;17779;50.942;4.026;2023-04-24T00:14:50;30.45;;;13.65;;
31132;SDS011;17779;50.942;4.026;2023-04-24T00:17:16;30.30;;;14.63;;
31132;SDS011;17779;50.942;4.026;2023-04-24T00:19:45;35.28;;;14.65;;
31132;SDS011;17779;50.942;4.026;2023-04-24T00:22:11;27.83;;;13.77;;
31132;SDS011;17779;50.942;4.026;2023-04-24T00:24:38;32.88;;;14.07;;
31132;SDS011;17779;50.942;4.026;2023-04-24T00:29:30;30.20;;;14.23;;
31132;SDS011;17779;50.942;4.026;2023-04-24T00:31:56;23.70;;;13.52;;
31132;SDS011;17779;50.942;4.026;2023-04-24T00:34:22;28.50;;;14.52;;
31132;SDS011;17779;50.942;4.026;2023-04-24T00:36:48;30.52;;;14.45;;
31132;SDS011;17779;50.942;4.026;2023-04-24T00:39:17;27.33;;;13.35;;
31132;SDS011;17779;50.942;4.026;2023-04-24T00:41:43;25.77;;;13.43;;
31132;SDS011;17779;50.942;4.026;2023-04-24T00:44:10;24.88;;;13.15;;
31132;SDS011;17779;50.942;4.026;2023-04-24T00:46:36;26.45;;;13.88;;
31132;SDS011;17779;50.942;4.026;2023-04-24T00:49:02;30.85;;;13.93;;
31132;SDS011;17779;50.942;4.026;2023-04-24T00:51:30;28.73;;;13.55;;
31132;SDS011;17779;50.942;4.026;2023-04-24T00:53:57;22.77;;;12.50;;
31132;SDS011;17779;50.942;4.026;2023-04-24T00:56:24;25.27;;;13.43;;
31132;SDS011;17779;50.942;4.026;2023-04-24T00:58:50;26.98;;;14.35;;
31132;SDS011;17779;50.942;4.026;2023-04-24T01:03:43;20.45;;;11.18;;
31132;SDS011;17779;50.942;4.026;2023-04-24T01:08:35;20.70;;;11.18;;
31132;SDS011;17779;50.942;4.026;2023-04-24T01:11:01;19.30;;;11.45;;
31132;SDS011;17779;50.942;4.026;2023-04-24T01:13:29;20.48;;;11.15;;
31132;SDS011;17779;50.942;4.026;2023-04-24T01:15:57;18.08;;;11.35;;
31132;SDS011;17779;50.942;4.026;2023-04-24T01:18:22;19.17;;;9.93;;
31132;SDS011;17779;50.942;4.026;2023-04-24T01:20:48;19.05;;;10.75;;
31132;SDS011;17779;50.942;4.026;2023-04-24T01:23:17;20.35;;;9.77;;
31132;SDS011;17779;50.942;4.026;2023-04-24T01:25:43;15.90;;;9.23;;
31132;SDS011;17779;50.942;4.026;2023-04-24T01:28:09;16.15;;;9.00;;
31132;SDS011;17779;50.942;4.026;2023-04-24T01:30:35;13.55;;;7.90;;
31132;SDS011;17779;50.942;4.026;2023-04-24T01:33:01;17.02;;;8.30;;
31132;SDS011;17779;50.942;4.026;2023-04-24T01:37:53;12.32;;;7.45;;
31132;SDS011;17779;50.942;4.026;2023-04-24T01:40:19;15.15;;;7.53;;
31132;SDS011;17779;50.942;4.026;2023-04-24T01:42:45;12.40;;;6.78;;
31132;SDS011;17779;50.942;4.026;2023-04-24T01:45:11;14.02;;;7.05;;
31132;SDS011;17779;50.942;4.026;2023-04-24T01:47:38;12.80;;;7.93;;
31132;SDS011;17779;50.942;4.026;2023-04-24T01:52:35;14.98;;;7.80;;
31132;SDS011;17779;50.942;4.026;2023-04-24T01:55:01;13.95;;;7.47;;
31132;SDS011;17779;50.942;4.026;2023-04-24T01:57:29;16.45;;;9.10;;
31132;SDS011;17779;50.942;4.026;2023-04-24T01:59:56;16.42;;;9.02;;
31132;SDS011;17779;50.942;4.026;2023-04-24T02:02:22;18.40;;;10.30;;
31132;SDS011;17779;50.942;4.026;2023-04-24T02:04:49;21.13;;;11.10;;
31132;SDS011;17779;50.942;4.026;2023-04-24T02:09:41;25.35;;;11.23;;
31132;SDS011;17779;50.942;4.026;2023-04-24T02:12:06;22.25;;;12.07;;
31132;SDS011;17779;50.942;4.026;2023-04-24T02:14:32;23.80;;;11.43;;
31132;SDS011;17779;50.942;4.026;2023-04-24T02:16:58;17.60;;;11.68;;
31132;SDS011;17779;50.942;4.026;2023-04-24T02:19:25;18.48;;;11.70;;
31132;SDS011;17779;50.942;4.026;2023-04-24T02:21:51;21.35;;;12.57;;
31132;SDS011;17779;50.942;4.026;2023-04-24T02:24:17;20.02;;;11.98;;
31132;SDS011;17779;50.942;4.026;2023-04-24T02:26:43;18.83;;;12.35;;
31132;SDS011;17779;50.942;4.026;2023-04-24T02:29:09;21.02;;;12.18;;
31132;SDS011;17779;50.942;4.026;2023-04-24T02:34:01;21.80;;;12.15;;
31132;SDS011;17779;50.942;4.026;2023-04-24T02:36:26;18.58;;;12.20;;
31132;SDS011;17779;50.942;4.026;2023-04-24T02:38:52;19.88;;;11.57;;
31132;SDS011;17779;50.942;4.026;2023-04-24T02:41:18;18.38;;;12.40;;
31132;SDS011;17779;50.942;4.026;2023-04-24T02:46:10;21.08;;;11.15;;
31132;SDS011;17779;50.942;4.026;2023-04-24T02:48:36;20.23;;;10.80;;
31132;SDS011;17779;50.942;4.026;2023-04-24T02:51:02;21.30;;;11.52;;
31132;SDS011;17779;50.942;4.026;2023-04-24T02:53:28;19.05;;;10.38;;
31132;SDS011;17779;50.942;4.026;2023-04-24T02:55:55;18.05;;;10.75;;
31132;SDS011;17779;50.942;4.026;2023-04-24T02:58:21;19.42;;;10.65;;
31132;SDS011;17779;50.942;4.026;2023-04-24T03:00:47;17.83;;;10.70;;
31132;SDS011;17779;50.942;4.026;2023-04-24T03:03:13;13.10;;;8.95;;
31132;SDS011;17779;50.942;4.026;2023-04-24T03:05:40;15.90;;;9.88;;
31132;SDS011;17779;50.942;4.026;2023-04-24T03:08:05;12.02;;;8.77;;
31132;SDS011;17779;50.942;4.026;2023-04-24T03:10:31;16.42;;;8.98;;
31132;SDS011;17779;50.942;4.026;2023-04-24T03:12:57;17.35;;;8.50;;
31132;SDS011;17779;50.942;4.026;2023-04-24T03:15:23;11.80;;;7.95;;
31132;SDS011;17779;50.942;4.026;2023-04-24T03:17:49;9.00;;;6.57;;
31132;SDS011;17779;50.942;4.026;2023-04-24T03:20:15;10.27;;;7.53;;
31132;SDS011;17779;50.942;4.026;2023-04-24T03:25:07;11.52;;;7.18;;
31132;SDS011;17779;50.942;4.026;2023-04-24T03:27:35;14.00;;;8.50;;
31132;SDS011;17779;50.942;4.026;2023-04-24T03:30:02;11.35;;;7.72;;
31132;SDS011;17779;50.942;4.026;2023-04-24T03:32:28;10.82;;;7.40;;
31132;SDS011;17779;50.942;4.026;2023-04-24T03:34:54;11.18;;;6.55;;
31132;SDS011;17779;50.942;4.026;2023-04-24T03:37:20;11.85;;;7.00;;
31132;SDS011;17779;50.942;4.026;2023-04-24T03:39:46;9.88;;;6.25;;
31132;SDS011;17779;50.942;4.026;2023-04-24T03:42:12;11.15;;;5.78;;
31132;SDS011;17779;50.942;4.026;2023-04-24T03:44:37;9.80;;;6.38;;
31132;SDS011;17779;50.942;4.026;2023-04-24T03:47:03;10.95;;;6.57;;
31132;SDS011;17779;50.942;4.026;2023-04-24T03:49:29;11.57;;;6.47;;
31132;SDS011;17779;50.942;4.026;2023-04-24T03:51:55;9.88;;;6.15;;
31132;SDS011;17779;50.942;4.026;2023-04-24T03:54:20;9.02;;;5.35;;
31132;SDS011;17779;50.942;4.026;2023-04-24T03:56:46;15.00;;;6.68;;
31132;SDS011;17779;50.942;4.026;2023-04-24T03:59:12;12.18;;;6.20;;
31132;SDS011;17779;50.942;4.026;2023-04-24T04:01:38;10.30;;;5.60;;
31132;SDS011;17779;50.942;4.026;2023-04-24T04:06:31;13.00;;;6.50;;
31132;SDS011;17779;50.942;4.026;2023-04-24T04:08:57;14.27;;;6.72;;
31132;SDS011;17779;50.942;4.026;2023-04-24T04:11:23;8.50;;;5.43;;
31132;SDS011;17779;50.942;4.026;2023-04-24T04:16:15;14.18;;;7.60;;
31132;SDS011;17779;50.942;4.026;2023-04-24T04:18:44;14.98;;;8.13;;
31132;SDS011;17779;50.942;4.026;2023-04-24T04:21:10;16.85;;;9.93;;
31132;SDS011;17779;50.942;4.026;2023-04-24T04:26:03;18.23;;;10.07;;
31132;SDS011;17779;50.942;4.026;2023-04-24T04:28:30;20.63;;;11.00;;
31132;SDS011;17779;50.942;4.026;2023-04-24T04:30:57;23.60;;;11.23;;
31132;SDS011;17779;50.942;4.026;2023-04-24T04:33:23;24.70;;;12.05;;
31132;SDS011;17779;50.942;4.026;2023-04-24T04:35:49;22.88;;;12.02;;
31132;SDS011;17779;50.942;4.026;2023-04-24T04:38:21;25.02;;;12.57;;
31132;SDS011;17779;50.942;4.026;2023-04-24T04:40:48;19.35;;;12.40;;
31132;SDS011;17779;50.942;4.026;2023-04-24T04:45:40;19.80;;;11.52;;
31132;SDS011;17779;50.942;4.026;2023-04-24T04:48:08;22.00;;;12.15;;
31132;SDS011;17779;50.942;4.026;2023-04-24T04:50:34;26.63;;;12.38;;
31132;SDS011;17779;50.942;4.026;2023-04-24T04:53:00;25.80;;;12.55;;
31132;SDS011;17779;50.942;4.026;2023-04-24T04:55:26;25.38;;;12.52;;
31132;SDS011;17779;50.942;4.026;2023-04-24T04:57:52;24.40;;;11.82;;
31132;SDS011;17779;50.942;4.026;2023-04-24T05:00:19;22.25;;;12.95;;
31132;SDS011;17779;50.942;4.026;2023-04-24T05:02:46;25.90;;;12.68;;
31132;SDS011;17779;50.942;4.026;2023-04-24T05:05:12;21.30;;;12.52;;
31132;SDS011;17779;50.942;4.026;2023-04-24T05:07:38;20.17;;;11.38;;
31132;SDS011;17779;50.942;4.026;2023-04-24T05:10:03;23.42;;;12.40;;
31132;SDS011;17779;50.942;4.026;2023-04-24T05:14:55;19.15;;;10.82;;
31132;SDS011;17779;50.942;4.026;2023-04-24T05:17:21;24.00;;;11.75;;
31132;SDS011;17779;50.942;4.026;2023-04-24T05:19:47;21.17;;;12.25;;
31132;SDS011;17779;50.942;4.026;2023-04-24T05:22:13;30.35;;;12.50;;
31132;SDS011;17779;50.942;4.026;2023-04-24T05:24:38;23.27;;;11.90;;
31132;SDS011;17779;50.942;4.026;2023-04-24T05:27:05;24.20;;;13.30;;
31132;SDS011;17779;50.942;4.026;2023-04-24T05:29:31;25.33;;;12.50;;
31132;SDS011;17779;50.942;4.026;2023-04-24T05:31:58;25.00;;;12.45;;
31132;SDS011;17779;50.942;4.026;2023-04-24T05:34:26;27.10;;;11.43;;
31132;SDS011;17779;50.942;4.026;2023-04-24T05:36:52;25.52;;;12.63;;
31132;SDS011;17779;50.942;4.026;2023-04-24T05:39:18;23.80;;;12.75;;
31132;SDS011;17779;50.942;4.026;2023-04-24T05:41:45;25.27;;;12.07;;
31132;SDS011;17779;50.942;4.026;2023-04-24T05:44:11;24.88;;;12.85;;
31132;SDS011;17779;50.942;4.026;2023-04-24T05:46:37;22.92;;;12.85;;
31132;SDS011;17779;50.942;4.026;2023-04-24T05:49:03;28.90;;;13.35;;
31132;SDS011;17779;50.942;4.026;2023-04-24T05:51:28;25.63;;;13.20;;
31132;SDS011;17779;50.942;4.026;2023-04-24T05:53:54;27.48;;;12.63;;
31132;SDS011;17779;50.942;4.026;2023-04-24T05:56:20;22.90;;;11.90;;
31132;SDS011;17779;50.942;4.026;2023-04-24T05:58:46;28.77;;;13.52;;
31132;SDS011;17779;50.942;4.026;2023-04-24T06:01:12;35.75;;;21.63;;
31132;SDS011;17779;50.942;4.026;2023-04-24T06:03:40;23.88;;;14.07;;
31132;SDS011;17779;50.942;4.026;2023-04-24T06:06:06;26.95;;;14.55;;
31132;SDS011;17779;50.942;4.026;2023-04-24T06:08:32;30.88;;;13.77;;
31132;SDS011;17779;50.942;4.026;2023-04-24T06:10:58;21.55;;;13.23;;
31132;SDS011;17779;50.942;4.026;2023-04-24T06:13:25;32.40;;;14.93;;
31132;SDS011;17779;50.942;4.026;2023-04-24T06:15:52;30.65;;;14.80;;
31132;SDS011;17779;50.942;4.026;2023-04-24T06:18:18;33.25;;;16.17;;
31132;SDS011;17779;50.942;4.026;2023-04-24T06:20:44;33.75;;;15.40;;
31132;SDS011;17779;50.942;4.026;2023-04-24T06:23:11;24.70;;;14.02;;
31132;SDS011;17779;50.942;4.026;2023-04-24T06:25:36;30.20;;;14.45;;
31132;SDS011;17779;50.942;4.026;2023-04-24T06:28:03;28.60;;;14.48;;
31132;SDS011;17779;50.942;4.026;2023-04-24T06:30:29;28.35;;;14.93;;
31132;SDS011;17779;50.942;4.026;2023-04-24T06:32:56;31.52;;;16.25;;
31132;SDS011;17779;50.942;4.026;2023-04-24T06:35:22;28.83;;;16.60;;
31132;SDS011;17779;50.942;4.026;2023-04-24T06:37:47;33.25;;;16.40;;
31132;SDS011;17779;50.942;4.026;2023-04-24T06:40:13;32.35;;;16.10;;
31132;SDS011;17779;50.942;4.026;2023-04-24T06:42:39;33.17;;;14.65;;
31132;SDS011;17779;50.942;4.026;2023-04-24T06:45:05;34.90;;;15.93;;
31132;SDS011;17779;50.942;4.026;2023-04-24T06:47:31;31.63;;;15.13;;
31132;SDS011;17779;50.942;4.026;2023-04-24T06:49:58;33.22;;;14.00;;
31132;SDS011;17779;50.942;4.026;2023-04-24T06:52:24;28.00;;;15.50;;
31132;SDS011;17779;50.942;4.026;2023-04-24T06:54:50;29.63;;;14.13;;
31132;SDS011;17779;50.942;4.026;2023-04-24T06:57:15;25.30;;;13.27;;
31132;SDS011;17779;50.942;4.026;2023-04-24T06:59:42;31.42;;;12.60;;
31132;SDS011;17779;50.942;4.026;2023-04-24T07:02:09;33.40;;;12.75;;
31132;SDS011;17779;50.942;4.026;2023-04-24T07:04:35;27.25;;;12.23;;
31132;SDS011;17779;50.942;4.026;2023-04-24T07:09:27;27.63;;;11.95;;
31132;SDS011;17779;50.942;4.026;2023-04-24T07:11:53;28.30;;;11.20;;
31132;SDS011;17779;50.942;4.026;2023-04-24T07:14:19;22.08;;;10.80;;
31132;SDS011;17779;50.942;4.026;2023-04-24T07:16:45;25.15;;;10.65;;
31132;SDS011;17779;50.942;4.026;2023-04-24T07:19:12;25.73;;;11.88;;
31132;SDS011;17779;50.942;4.026;2023-04-24T07:21:38;33.88;;;13.60;;
31132;SDS011;17779;50.942;4.026;2023-04-24T07:24:04;33.75;;;13.05;;
31132;SDS011;17779;50.942;4.026;2023-04-24T07:26:30;27.90;;;12.98;;
31132;SDS011;17779;50.942;4.026;2023-04-24T07:31:22;28.92;;;12.48;;
31132;SDS011;17779;50.942;4.026;2023-04-24T07:33:48;25.73;;;10.45;;
31132;SDS011;17779;50.942;4.026;2023-04-24T07:36:14;19.00;;;8.20;;
31132;SDS011;17779;50.942;4.026;2023-04-24T07:38:44;24.92;;;8.27;;
31132;SDS011;17779;50.942;4.026;2023-04-24T07:41:10;19.15;;;7.32;;
31132;SDS011;17779;50.942;4.026;2023-04-24T07:43:37;23.77;;;8.23;;
31132;SDS011;17779;50.942;4.026;2023-04-24T07:46:02;24.98;;;8.90;;
31132;SDS011;17779;50.942;4.026;2023-04-24T07:48:28;26.52;;;8.10;;
31132;SDS011;17779;50.942;4.026;2023-04-24T07:50:54;22.42;;;8.32;;
31132;SDS011;17779;50.942;4.026;2023-04-24T07:53:21;27.60;;;8.18;;
31132;SDS011;17779;50.942;4.026;2023-04-24T07:55:47;21.45;;;7.32;;
31132;SDS011;17779;50.942;4.026;2023-04-24T07:58:13;22.83;;;7.07;;
31132;SDS011;17779;50.942;4.026;2023-04-24T08:00:38;20.45;;;6.80;;
31132;SDS011;17779;50.942;4.026;2023-04-24T08:03:04;23.20;;;7.35;;
31132;SDS011;17779;50.942;4.026;2023-04-24T08:05:30;24.27;;;8.02;;
31132;SDS011;17779;50.942;4.026;2023-04-24T08:07:56;20.35;;;6.80;;
31132;SDS011;17779;50.942;4.026;2023-04-24T08:10:22;16.05;;;7.47;;
31132;SDS011;17779;50.942;4.026;2023-04-24T08:12:48;19.15;;;6.82;;
31132;SDS011;17779;50.942;4.026;2023-04-24T08:15:14;17.20;;;6.32;;
31132;SDS011;17779;50.942;4.026;2023-04-24T08:17:40;21.38;;;6.80;;
31132;SDS011;17779;50.942;4.026;2023-04-24T08:20:06;18.40;;;5.80;;
31132;SDS011;17779;50.942;4.026;2023-04-24T08:22:39;21.10;;;5.63;;
31132;SDS011;17779;50.942;4.026;2023-04-24T08:25:06;14.05;;;5.18;;
31132;SDS011;17779;50.942;4.026;2023-04-24T08:27:33;15.27;;;4.60;;
31132;SDS011;17779;50.942;4.026;2023-04-24T08:30:00;15.52;;;4.75;;
31132;SDS011;17779;50.942;4.026;2023-04-24T08:32:26;11.10;;;4.20;;
31132;SDS011;17779;50.942;4.026;2023-04-24T08:34:54;14.80;;;4.38;;
31132;SDS011;17779;50.942;4.026;2023-04-24T08:37:21;10.00;;;4.05;;
31132;SDS011;17779;50.942;4.026;2023-04-24T08:39:49;10.05;;;3.80;;
31132;SDS011;17779;50.942;4.026;2023-04-24T08:42:15;12.38;;;3.85;;
31132;SDS011;17779;50.942;4.026;2023-04-24T08:44:43;10.18;;;3.67;;
31132;SDS011;17779;50.942;4.026;2023-04-24T08:47:09;11.73;;;3.88;;
31132;SDS011;17779;50.942;4.026;2023-04-24T08:49:36;10.02;;;3.65;;
31132;SDS011;17779;50.942;4.026;2023-04-24T08:52:04;13.85;;;4.80;;
31132;SDS011;17779;50.942;4.026;2023-04-24T08:54:30;9.98;;;3.10;;
31132;SDS011;17779;50.942;4.026;2023-04-24T08:56:59;11.68;;;3.60;;
31132;SDS011;17779;50.942;4.026;2023-04-24T08:59:31;12.50;;;3.95;;
31132;SDS011;17779;50.942;4.026;2023-04-24T09:01:59;14.65;;;3.90;;
31132;SDS011;17779;50.942;4.026;2023-04-24T09:04:26;15.07;;;4.22;;
31132;SDS011;17779;50.942;4.026;2023-04-24T09:06:55;13.57;;;4.10;;
31132;SDS011;17779;50.942;4.026;2023-04-24T09:09:22;12.65;;;4.03;;
31132;SDS011;17779;50.942;4.026;2023-04-24T09:11:52;15.30;;;4.60;;
31132;SDS011;17779;50.942;4.026;2023-04-24T09:14:20;11.20;;;3.85;;
31132;SDS011;17779;50.942;4.026;2023-04-24T09:16:49;14.20;;;3.67;;
31132;SDS011;17779;50.942;4.026;2023-04-24T09:19:15;13.90;;;4.03;;
31132;SDS011;17779;50.942;4.026;2023-04-24T09:21:41;9.32;;;3.28;;
31132;SDS011;17779;50.942;4.026;2023-04-24T09:24:15;9.60;;;3.47;;
31132;SDS011;17779;50.942;4.026;2023-04-24T09:26:43;10.13;;;3.80;;
31132;SDS011;17779;50.942;4.026;2023-04-24T09:31:39;16.73;;;4.30;;
31132;SDS011;17779;50.942;4.026;2023-04-24T09:34:05;13.27;;;4.20;;
31132;SDS011;17779;50.942;4.026;2023-04-24T09:36:32;11.80;;;3.85;;
31132;SDS011;17779;50.942;4.026;2023-04-24T09:38:59;15.68;;;4.90;;
31132;SDS011;17779;50.942;4.026;2023-04-24T09:41:27;9.75;;;3.78;;
31132;SDS011;17779;50.942;4.026;2023-04-24T09:43:56;10.50;;;4.03;;
31132;SDS011;17779;50.942;4.026;2023-04-24T09:46:30;11.70;;;3.95;;
31132;SDS011;17779;50.942;4.026;2023-04-24T09:48:57;9.27;;;3.53;;
31132;SDS011;17779;50.942;4.026;2023-04-24T09:51:35;13.50;;;4.32;;
31132;SDS011;17779;50.942;4.026;2023-04-24T09:54:03;10.63;;;3.97;;
31132;SDS011;17779;50.942;4.026;2023-04-24T09:56:41;11.13;;;3.75;;
31132;SDS011;17779;50.942;4.026;2023-04-24T09:59:09;9.48;;;3.42;;
31132;SDS011;17779;50.942;4.026;2023-04-24T10:01:36;13.80;;;3.45;;
31132;SDS011;17779;50.942;4.026;2023-04-24T10:04:03;11.65;;;3.30;;
31132;SDS011;17779;50.942;4.026;2023-04-24T10:06:35;11.20;;;3.33;;
31132;SDS011;17779;50.942;4.026;2023-04-24T10:09:01;13.73;;;3.88;;
31132;SDS011;17779;50.942;4.026;2023-04-24T10:11:28;9.02;;;3.63;;
31132;SDS011;17779;50.942;4.026;2023-04-24T10:13:55;11.93;;;3.67;;
31132;SDS011;17779;50.942;4.026;2023-04-24T10:16:22;12.50;;;3.80;;
31132;SDS011;17779;50.942;4.026;2023-04-24T10:18:49;8.75;;;3.95;;
31132;SDS011;17779;50.942;4.026;2023-04-24T10:21:19;14.10;;;4.45;;
31132;SDS011;17779;50.942;4.026;2023-04-24T10:23:45;10.57;;;3.75;;
31132;SDS011;17779;50.942;4.026;2023-04-24T10:26:14;9.77;;;4.10;;
31132;SDS011;17779;50.942;4.026;2023-04-24T10:28:46;9.40;;;3.42;;
31132;SDS011;17779;50.942;4.026;2023-04-24T10:31:13;8.63;;;3.33;;
31132;SDS011;17779;50.942;4.026;2023-04-24T10:33:43;10.30;;;3.33;;
31132;SDS011;17779;50.942;4.026;2023-04-24T10:36:11;11.65;;;3.30;;
31132;SDS011;17779;50.942;4.026;2023-04-24T10:38:39;10.95;;;3.80;;
31132;SDS011;17779;50.942;4.026;2023-04-24T10:41:08;7.32;;;3.47;;
31132;SDS011;17779;50.942;4.026;2023-04-24T10:43:48;9.73;;;3.92;;
31132;SDS011;17779;50.942;4.026;2023-04-24T10:46:29;9.38;;;4.00;;
31132;SDS011;17779;50.942;4.026;2023-04-24T10:48:55;12.45;;;3.92;;
31132;SDS011;17779;50.942;4.026;2023-04-24T10:51:23;18.35;;;4.35;;
31132;SDS011;17779;50.942;4.026;2023-04-24T10:53:50;16.70;;;4.68;;
31132;SDS011;17779;50.942;4.026;2023-04-24T10:56:17;13.88;;;4.43;;
31132;SDS011;17779;50.942;4.026;2023-04-24T10:58:44;14.48;;;4.55;;
31132;SDS011;17779;50.942;4.026;2023-04-24T11:01:24;13.10;;;4.00;;
31132;SDS011;17779;50.942;4.026;2023-04-24T11:03:57;13.65;;;4.88;;
31132;SDS011;17779;50.942;4.026;2023-04-24T11:06:31;10.25;;;4.32;;
31132;SDS011;17779;50.942;4.026;2023-04-24T11:09:08;17.70;;;4.60;;
31132;SDS011;17779;50.942;4.026;2023-04-24T11:11:37;12.77;;;4.80;;
31132;SDS011;17779;50.942;4.026;2023-04-24T11:14:13;10.40;;;4.47;;
31132;SDS011;17779;50.942;4.026;2023-04-24T11:16:44;10.40;;;4.60;;
31132;SDS011;17779;50.942;4.026;2023-04-24T11:21:44;8.45;;;4.00;;
31132;SDS011;17779;50.942;4.026;2023-04-24T11:26:54;11.95;;;3.88;;
31132;SDS011;17779;50.942;4.026;2023-04-24T11:32:40;12.35;;;4.65;;
31132;SDS011;17779;50.942;4.026;2023-04-24T11:35:14;11.05;;;4.30;;
31132;SDS011;17779;50.942;4.026;2023-04-24T11:37:42;11.55;;;4.13;;
31132;SDS011;17779;50.942;4.026;2023-04-24T11:40:11;13.40;;;4.85;;
31132;SDS011;17779;50.942;4.026;2023-04-24T11:42:47;12.35;;;4.30;;
31132;SDS011;17779;50.942;4.026;2023-04-24T11:45:15;17.52;;;4.70;;
31132;SDS011;17779;50.942;4.026;2023-04-24T11:47:43;11.80;;;4.22;;
31132;SDS011;17779;50.942;4.026;2023-04-24T11:50:13;12.75;;;4.97;;
31132;SDS011;17779;50.942;4.026;2023-04-24T11:52:41;11.23;;;4.75;;
31132;SDS011;17779;50.942;4.026;2023-04-24T11:55:29;13.43;;;4.82;;
31132;SDS011;17779;50.942;4.026;2023-04-24T11:57:55;9.33;;;4.17;;
31132;SDS011;17779;50.942;4.026;2023-04-24T12:00:27;13.27;;;4.78;;
31132;SDS011;17779;50.942;4.026;2023-04-24T12:03:13;11.95;;;4.20;;
31132;SDS011;17779;50.942;4.026;2023-04-24T12:05:40;9.68;;;4.50;;
31132;SDS011;17779;50.942;4.026;2023-04-24T12:08:06;13.65;;;4.28;;
31132;SDS011;17779;50.942;4.026;2023-04-24T12:10:35;8.45;;;3.08;;
31132;SDS011;17779;50.942;4.026;2023-04-24T12:13:01;8.48;;;3.53;;
31132;SDS011;17779;50.942;4.026;2023-04-24T12:15:27;9.00;;;3.88;;
31132;SDS011;17779;50.942;4.026;2023-04-24T12:17:54;10.60;;;4.43;;
31132;SDS011;17779;50.942;4.026;2023-04-24T12:20:39;7.55;;;3.35;;
31132;SDS011;17779;50.942;4.026;2023-04-24T12:23:06;6.88;;;2.88;;
31132;SDS011;17779;50.942;4.026;2023-04-24T12:25:35;7.32;;;2.63;;
31132;SDS011;17779;50.942;4.026;2023-04-24T12:30:30;8.15;;;2.80;;
31132;SDS011;17779;50.942;4.026;2023-04-24T12:32:58;7.72;;;2.97;;
31132;SDS011;17779;50.942;4.026;2023-04-24T12:35:27;10.85;;;3.13;;
31132;SDS011;17779;50.942;4.026;2023-04-24T12:37:54;6.90;;;2.50;;
31132;SDS011;17779;50.942;4.026;2023-04-24T12:40:20;15.32;;;3.17;;
31132;SDS011;17779;50.942;4.026;2023-04-24T12:42:51;7.25;;;2.75;;
31132;SDS011;17779;50.942;4.026;2023-04-24T12:45:17;5.65;;;2.20;;
31132;SDS011;17779;50.942;4.026;2023-04-24T12:47:44;8.93;;;2.95;;
31132;SDS011;17779;50.942;4.026;2023-04-24T12:50:12;10.48;;;2.80;;
31132;SDS011;17779;50.942;4.026;2023-04-24T12:52:40;8.43;;;2.75;;
31132;SDS011;17779;50.942;4.026;2023-04-24T12:55:07;6.72;;;2.30;;
31132;SDS011;17779;50.942;4.026;2023-04-24T12:57:34;6.78;;;2.30;;
31132;SDS011;17779;50.942;4.026;2023-04-24T13:00:01;7.28;;;2.25;;
31132;SDS011;17779;50.942;4.026;2023-04-24T13:02:28;8.32;;;2.40;;
31132;SDS011;17779;50.942;4.026;2023-04-24T13:04:55;8.15;;;2.20;;
31132;SDS011;17779;50.942;4.026;2023-04-24T13:07:22;6.43;;;2.53;;
31132;SDS011;17779;50.942;4.026;2023-04-24T13:09:48;7.28;;;2.60;;
31132;SDS011;17779;50.942;4.026;2023-04-24T13:12:15;9.02;;;2.28;;
31132;SDS011;17779;50.942;4.026;2023-04-24T13:14:41;10.45;;;2.70;;
31132;SDS011;17779;50.942;4.026;2023-04-24T13:17:06;7.95;;;2.40;;
31132;SDS011;17779;50.942;4.026;2023-04-24T13:19:36;4.85;;;2.45;;
31132;SDS011;17779;50.942;4.026;2023-04-24T13:22:04;6.65;;;2.42;;
31132;SDS011;17779;50.942;4.026;2023-04-24T13:24:30;4.97;;;2.03;;
31132;SDS011;17779;50.942;4.026;2023-04-24T13:26:56;6.85;;;2.47;;
31132;SDS011;17779;50.942;4.026;2023-04-24T13:29:22;5.15;;;2.10;;
31132;SDS011;17779;50.942;4.026;2023-04-24T13:31:52;7.80;;;2.67;;
31132;SDS011;17779;50.942;4.026;2023-04-24T13:34:21;7.55;;;1.95;;
31132;SDS011;17779;50.942;4.026;2023-04-24T13:36:49;5.53;;;1.90;;
31132;SDS011;17779;50.942;4.026;2023-04-24T13:39:16;9.15;;;2.30;;
31132;SDS011;17779;50.942;4.026;2023-04-24T13:41:42;7.78;;;1.88;;
31132;SDS011;17779;50.942;4.026;2023-04-24T13:44:09;5.72;;;1.90;;
31132;SDS011;17779;50.942;4.026;2023-04-24T13:46:35;6.97;;;2.08;;
31132;SDS011;17779;50.942;4.026;2023-04-24T13:49:01;8.80;;;2.53;;
31132;SDS011;17779;50.942;4.026;2023-04-24T13:51:28;5.13;;;1.95;;
31132;SDS011;17779;50.942;4.026;2023-04-24T13:53:55;5.97;;;2.03;;
31132;SDS011;17779;50.942;4.026;2023-04-24T13:56:21;7.60;;;2.53;;
31132;SDS011;17779;50.942;4.026;2023-04-24T13:58:47;6.72;;;1.98;;
31132;SDS011;17779;50.942;4.026;2023-04-24T14:01:13;4.88;;;1.85;;
31132;SDS011;17779;50.942;4.026;2023-04-24T14:03:41;5.82;;;1.80;;
31132;SDS011;17779;50.942;4.026;2023-04-24T14:06:08;7.43;;;2.15;;
31132;SDS011;17779;50.942;4.026;2023-04-24T14:08:34;4.90;;;1.50;;
31132;SDS011;17779;50.942;4.026;2023-04-24T14:11:00;8.38;;;2.30;;
31132;SDS011;17779;50.942;4.026;2023-04-24T14:13:26;6.30;;;1.92;;
31132;SDS011;17779;50.942;4.026;2023-04-24T14:15:52;12.07;;;2.05;;
31132;SDS011;17779;50.942;4.026;2023-04-24T14:18:18;7.30;;;1.58;;
31132;SDS011;17779;50.942;4.026;2023-04-24T14:20:44;6.75;;;1.83;;
31132;SDS011;17779;50.942;4.026;2023-04-24T14:23:10;8.02;;;1.80;;
31132;SDS011;17779;50.942;4.026;2023-04-24T14:25:36;5.97;;;1.73;;
31132;SDS011;17779;50.942;4.026;2023-04-24T14:28:02;6.70;;;1.80;;
31132;SDS011;17779;50.942;4.026;2023-04-24T14:30:28;6.78;;;1.58;;
31132;SDS011;17779;50.942;4.026;2023-04-24T14:32:54;5.13;;;1.70;;
31132;SDS011;17779;50.942;4.026;2023-04-24T14:37:48;3.28;;;1.38;;
31132;SDS011;17779;50.942;4.026;2023-04-24T14:42:40;6.97;;;2.05;;
31132;SDS011;17779;50.942;4.026;2023-04-24T14:45:06;6.00;;;1.73;;
31132;SDS011;17779;50.942;4.026;2023-04-24T14:47:33;6.57;;;2.08;;
31132;SDS011;17779;50.942;4.026;2023-04-24T14:49:59;7.93;;;1.90;;
31132;SDS011;17779;50.942;4.026;2023-04-24T14:52:24;3.40;;;1.40;;
31132;SDS011;17779;50.942;4.026;2023-04-24T14:54:51;5.55;;;1.60;;
31132;SDS011;17779;50.942;4.026;2023-04-24T14:57:18;5.88;;;2.00;;
31132;SDS011;17779;50.942;4.026;2023-04-24T14:59:44;5.00;;;1.50;;
31132;SDS011;17779;50.942;4.026;2023-04-24T15:02:09;6.43;;;1.85;;
31132;SDS011;17779;50.942;4.026;2023-04-24T15:04:35;9.55;;;1.88;;
31132;SDS011;17779;50.942;4.026;2023-04-24T15:07:01;6.53;;;1.77;;
31132;SDS011;17779;50.942;4.026;2023-04-24T15:09:27;6.38;;;2.05;;
31132;SDS011;17779;50.942;4.026;2023-04-24T15:11:53;5.68;;;1.88;;
31132;SDS011;17779;50.942;4.026;2023-04-24T15:14:18;4.50;;;1.60;;
31132;SDS011;17779;50.942;4.026;2023-04-24T15:16:44;6.10;;;1.60;;
31132;SDS011;17779;50.942;4.026;2023-04-24T15:19:10;7.93;;;1.70;;
31132;SDS011;17779;50.942;4.026;2023-04-24T15:21:36;4.75;;;1.42;;
31132;SDS011;17779;50.942;4.026;2023-04-24T15:24:03;3.72;;;1.50;;
31132;SDS011;17779;50.942;4.026;2023-04-24T15:26:29;5.28;;;2.00;;
31132;SDS011;17779;50.942;4.026;2023-04-24T15:28:56;6.03;;;1.50;;
31132;SDS011;17779;50.942;4.026;2023-04-24T15:31:21;9.50;;;1.77;;